Verdi, Minnesota
Current Conditions -  °F | °C
As of 8:14 AM on Thursday 27 Nov 2014 (Local Time) from KPQN Reporting Station
Clear Clear  
Wind Chill: -4°   Ceiling: Unl
Heat Index: -4°   Visibility: 10mi
Dew Point: -11°   Wind: 0mph
Humidity: 71%   Direction: NA
Pressure: 30.43"   Gusts: NA
Location:  44.066°N, 96.3302°W
Report Text: KPQN 271414Z AUTO 00000KT 10SM CLR M20/M24 A3043 RMK AO2
Loading
Personal Weather Stations






























Interactive Weather Map New forecast layout! Learn more

10-Day Weather Forecast

Advertisements
Track Severe Weather on mobile